sensor_id;sensor_type;location;lat;lon;timestamp;temperature;humidity
51500;DHT22;39101;53.478;6.158;2023-01-10T00:00:28;6.30;99.90
51500;DHT22;39101;53.478;6.158;2023-01-10T00:02:56;6.30;99.90
51500;DHT22;39101;53.478;6.158;2023-01-10T00:05:22;6.60;99.90
51500;DHT22;39101;53.478;6.158;2023-01-10T00:07:47;6.40;99.90
51500;DHT22;39101;53.478;6.158;2023-01-10T00:10:13;6.50;99.90
51500;DHT22;39101;53.478;6.158;2023-01-10T00:12:39;6.60;99.90
51500;DHT22;39101;53.478;6.158;2023-01-10T00:15:23;6.60;99.90
51500;DHT22;39101;53.478;6.158;2023-01-10T00:17:49;6.30;99.90
51500;DHT22;39101;53.478;6.158;2023-01-10T00:20:15;6.20;99.90
51500;DHT22;39101;53.478;6.158;2023-01-10T00:22:40;6.30;99.90
51500;DHT22;39101;53.478;6.158;2023-01-10T00:25:06;6.20;99.90
51500;DHT22;39101;53.478;6.158;2023-01-10T00:27:32;6.50;99.90
51500;DHT22;39101;53.478;6.158;2023-01-10T00:29:59;6.60;99.90
51500;DHT22;39101;53.478;6.158;2023-01-10T00:32:28;6.20;99.90
51500;DHT22;39101;53.478;6.158;2023-01-10T00:34:54;6.80;99.90
51500;DHT22;39101;53.478;6.158;2023-01-10T00:37:20;6.80;99.90
51500;DHT22;39101;53.478;6.158;2023-01-10T00:39:45;6.40;99.90
51500;DHT22;39101;53.478;6.158;2023-01-10T00:42:11;6.70;99.90
51500;DHT22;39101;53.478;6.158;2023-01-10T00:44:55;6.30;99.90
51500;DHT22;39101;53.478;6.158;2023-01-10T00:47:21;6.30;99.90
51500;DHT22;39101;53.478;6.158;2023-01-10T00:49:46;6.80;99.90
51500;DHT22;39101;53.478;6.158;2023-01-10T00:52:12;6.80;99.90
51500;DHT22;39101;53.478;6.158;2023-01-10T00:54:37;6.80;99.90
51500;DHT22;39101;53.478;6.158;2023-01-10T00:57:03;6.80;99.90
51500;DHT22;39101;53.478;6.158;2023-01-10T00:59:29;6.60;99.90
51500;DHT22;39101;53.478;6.158;2023-01-10T01:01:54;6.90;99.90
51500;DHT22;39101;53.478;6.158;2023-01-10T01:04:20;6.40;99.90
51500;DHT22;39101;53.478;6.158;2023-01-10T01:06:46;6.60;99.90
51500;DHT22;39101;53.478;6.158;2023-01-10T01:09:14;6.60;99.90
51500;DHT22;39101;53.478;6.158;2023-01-10T01:11:39;6.60;99.90
51500;DHT22;39101;53.478;6.158;2023-01-10T01:14:05;6.30;99.90
51500;DHT22;39101;53.478;6.158;2023-01-10T01:16:31;6.50;99.90
51500;DHT22;39101;53.478;6.158;2023-01-10T01:18:57;6.30;99.90
51500;DHT22;39101;53.478;6.158;2023-01-10T01:21:22;6.60;99.90
51500;DHT22;39101;53.478;6.158;2023-01-10T01:23:54;6.50;99.90
51500;DHT22;39101;53.478;6.158;2023-01-10T01:26:25;6.70;99.90
51500;DHT22;39101;53.478;6.158;2023-01-10T01:28:51;6.70;99.90
51500;DHT22;39101;53.478;6.158;2023-01-10T01:31:16;6.40;99.90
51500;DHT22;39101;53.478;6.158;2023-01-10T01:33:42;6.70;99.90
51500;DHT22;39101;53.478;6.158;2023-01-10T01:36:09;6.50;99.90
51500;DHT22;39101;53.478;6.158;2023-01-10T01:38:38;6.60;99.90
51500;DHT22;39101;53.478;6.158;2023-01-10T01:41:04;6.60;99.90
51500;DHT22;39101;53.478;6.158;2023-01-10T01:44:09;6.10;99.90
51500;DHT22;39101;53.478;6.158;2023-01-10T01:46:38;6.30;99.90
51500;DHT22;39101;53.478;6.158;2023-01-10T01:49:11;6.60;99.90
51500;DHT22;39101;53.478;6.158;2023-01-10T01:51:38;6.10;99.90
51500;DHT22;39101;53.478;6.158;2023-01-10T01:54:07;6.00;99.90
51500;DHT22;39101;53.478;6.158;2023-01-10T01:56:46;6.40;99.90
51500;DHT22;39101;53.478;6.158;2023-01-10T02:01:39;6.20;99.90
51500;DHT22;39101;53.478;6.158;2023-01-10T02:04:37;5.80;99.90
51500;DHT22;39101;53.478;6.158;2023-01-10T02:07:05;5.80;99.90
51500;DHT22;39101;53.478;6.158;2023-01-10T02:12:06;6.40;99.90
51500;DHT22;39101;53.478;6.158;2023-01-10T02:14:33;6.50;99.90
51500;DHT22;39101;53.478;6.158;2023-01-10T02:17:00;6.40;99.90
51500;DHT22;39101;53.478;6.158;2023-01-10T02:19:54;6.20;99.90
51500;DHT22;39101;53.478;6.158;2023-01-10T02:36:34;5.70;99.90
51500;DHT22;39101;53.478;6.158;2023-01-10T02:39:14;6.20;99.90
51500;DHT22;39101;53.478;6.158;2023-01-10T02:42:06;6.20;99.90
51500;DHT22;39101;53.478;6.158;2023-01-10T02:44:53;5.80;99.90
51500;DHT22;39101;53.478;6.158;2023-01-10T02:47:22;6.00;99.90
51500;DHT22;39101;53.478;6.158;2023-01-10T02:49:50;6.00;99.90
51500;DHT22;39101;53.478;6.158;2023-01-10T02:52:22;6.20;99.90
51500;DHT22;39101;53.478;6.158;2023-01-10T02:54:54;6.30;99.90
51500;DHT22;39101;53.478;6.158;2023-01-10T02:57:53;6.50;99.90
51500;DHT22;39101;53.478;6.158;2023-01-10T03:00:47;6.20;99.90
51500;DHT22;39101;53.478;6.158;2023-01-10T03:06:24;6.50;99.90
51500;DHT22;39101;53.478;6.158;2023-01-10T03:12:36;6.30;99.90
51500;DHT22;39101;53.478;6.158;2023-01-10T03:15:05;6.50;99.90
51500;DHT22;39101;53.478;6.158;2023-01-10T03:17:32;6.10;99.90
51500;DHT22;39101;53.478;6.158;2023-01-10T03:20:02;6.50;99.90
51500;DHT22;39101;53.478;6.158;2023-01-10T03:22:30;6.50;99.90
51500;DHT22;39101;53.478;6.158;2023-01-10T03:24:58;6.50;99.90
51500;DHT22;39101;53.478;6.158;2023-01-10T03:27:36;6.50;99.90
51500;DHT22;39101;53.478;6.158;2023-01-10T03:32:44;6.00;99.90
51500;DHT22;39101;53.478;6.158;2023-01-10T03:35:11;6.00;99.90
51500;DHT22;39101;53.478;6.158;2023-01-10T03:40:25;6.00;99.90
51500;DHT22;39101;53.478;6.158;2023-01-10T03:43:17;6.30;99.90
51500;DHT22;39101;53.478;6.158;2023-01-10T03:46:03;5.80;99.90
51500;DHT22;39101;53.478;6.158;2023-01-10T03:48:33;5.90;99.90
51500;DHT22;39101;53.478;6.158;2023-01-10T03:51:02;6.30;99.90
51500;DHT22;39101;53.478;6.158;2023-01-10T03:53:30;6.10;99.90
51500;DHT22;39101;53.478;6.158;2023-01-10T03:55:56;6.30;99.90
51500;DHT22;39101;53.478;6.158;2023-01-10T03:58:22;6.30;99.90
51500;DHT22;39101;53.478;6.158;2023-01-10T04:00:47;6.10;99.90
51500;DHT22;39101;53.478;6.158;2023-01-10T04:03:13;6.00;99.90
51500;DHT22;39101;53.478;6.158;2023-01-10T04:05:40;6.10;99.90
51500;DHT22;39101;53.478;6.158;2023-01-10T04:08:06;6.30;99.90
51500;DHT22;39101;53.478;6.158;2023-01-10T04:10:32;6.30;99.90
51500;DHT22;39101;53.478;6.158;2023-01-10T04:13:01;6.20;99.90
51500;DHT22;39101;53.478;6.158;2023-01-10T04:15:27;6.20;99.90
51500;DHT22;39101;53.478;6.158;2023-01-10T04:17:53;6.10;99.90
51500;DHT22;39101;53.478;6.158;2023-01-10T04:20:19;5.90;99.90
51500;DHT22;39101;53.478;6.158;2023-01-10T04:22:45;5.80;99.90
51500;DHT22;39101;53.478;6.158;2023-01-10T04:25:11;5.90;99.90
51500;DHT22;39101;53.478;6.158;2023-01-10T04:27:36;6.00;99.90
51500;DHT22;39101;53.478;6.158;2023-01-10T04:30:02;6.30;99.90
51500;DHT22;39101;53.478;6.158;2023-01-10T04:32:28;6.10;99.90
51500;DHT22;39101;53.478;6.158;2023-01-10T04:34:54;5.80;99.90
51500;DHT22;39101;53.478;6.158;2023-01-10T04:37:20;5.90;99.90
51500;DHT22;39101;53.478;6.158;2023-01-10T04:39:46;6.00;99.90
51500;DHT22;39101;53.478;6.158;2023-01-10T04:42:11;6.20;99.90
51500;DHT22;39101;53.478;6.158;2023-01-10T04:44:37;5.80;99.90
51500;DHT22;39101;53.478;6.158;2023-01-10T04:47:03;6.00;99.90
51500;DHT22;39101;53.478;6.158;2023-01-10T04:49:29;5.60;99.90
51500;DHT22;39101;53.478;6.158;2023-01-10T04:51:55;5.90;99.90
51500;DHT22;39101;53.478;6.158;2023-01-10T04:54:21;5.90;99.90
51500;DHT22;39101;53.478;6.158;2023-01-10T04:56:48;6.20;99.90
51500;DHT22;39101;53.478;6.158;2023-01-10T04:59:13;5.80;99.90
51500;DHT22;39101;53.478;6.158;2023-01-10T05:01:39;5.80;99.90
51500;DHT22;39101;53.478;6.158;2023-01-10T05:04:05;6.20;99.90
51500;DHT22;39101;53.478;6.158;2023-01-10T05:06:31;5.90;99.90
51500;DHT22;39101;53.478;6.158;2023-01-10T05:08:57;6.30;99.90
51500;DHT22;39101;53.478;6.158;2023-01-10T05:11:23;5.90;99.90
51500;DHT22;39101;53.478;6.158;2023-01-10T05:13:48;6.10;99.90
51500;DHT22;39101;53.478;6.158;2023-01-10T05:16:14;6.60;99.90
51500;DHT22;39101;53.478;6.158;2023-01-10T05:18:40;6.10;99.90
51500;DHT22;39101;53.478;6.158;2023-01-10T05:21:11;6.00;99.90
51500;DHT22;39101;53.478;6.158;2023-01-10T05:23:37;6.00;99.90
51500;DHT22;39101;53.478;6.158;2023-01-10T05:26:17;6.20;99.90
51500;DHT22;39101;53.478;6.158;2023-01-10T05:28:44;6.00;99.90
51500;DHT22;39101;53.478;6.158;2023-01-10T05:31:12;6.00;99.90
51500;DHT22;39101;53.478;6.158;2023-01-10T05:33:38;5.90;99.90
51500;DHT22;39101;53.478;6.158;2023-01-10T05:36:05;6.20;99.90
51500;DHT22;39101;53.478;6.158;2023-01-10T05:38:31;5.80;99.90
51500;DHT22;39101;53.478;6.158;2023-01-10T05:40:58;5.80;99.90
51500;DHT22;39101;53.478;6.158;2023-01-10T05:43:25;6.00;99.90
51500;DHT22;39101;53.478;6.158;2023-01-10T05:45:51;5.80;99.90
51500;DHT22;39101;53.478;6.158;2023-01-10T05:48:17;6.20;99.90
51500;DHT22;39101;53.478;6.158;2023-01-10T05:50:43;6.20;99.90
51500;DHT22;39101;53.478;6.158;2023-01-10T05:53:09;6.20;99.90
51500;DHT22;39101;53.478;6.158;2023-01-10T05:55:35;5.80;99.90
51500;DHT22;39101;53.478;6.158;2023-01-10T05:58:01;5.80;99.90
51500;DHT22;39101;53.478;6.158;2023-01-10T06:00:27;5.70;99.90
51500;DHT22;39101;53.478;6.158;2023-01-10T06:02:54;5.90;99.90
51500;DHT22;39101;53.478;6.158;2023-01-10T06:05:20;6.20;99.90
51500;DHT22;39101;53.478;6.158;2023-01-10T06:07:45;5.80;99.90
51500;DHT22;39101;53.478;6.158;2023-01-10T06:10:11;5.70;99.90
51500;DHT22;39101;53.478;6.158;2023-01-10T06:12:41;5.70;99.90
51500;DHT22;39101;53.478;6.158;2023-01-10T06:15:08;6.20;99.90
51500;DHT22;39101;53.478;6.158;2023-01-10T06:17:34;5.70;99.90
51500;DHT22;39101;53.478;6.158;2023-01-10T06:19:59;5.70;99.90
51500;DHT22;39101;53.478;6.158;2023-01-10T06:22:25;6.10;99.90
51500;DHT22;39101;53.478;6.158;2023-01-10T06:24:52;5.60;99.90
51500;DHT22;39101;53.478;6.158;2023-01-10T06:27:19;6.00;99.90
51500;DHT22;39101;53.478;6.158;2023-01-10T06:29:45;6.10;99.90
51500;DHT22;39101;53.478;6.158;2023-01-10T06:32:10;5.70;99.90
51500;DHT22;39101;53.478;6.158;2023-01-10T06:34:36;5.90;99.90
51500;DHT22;39101;53.478;6.158;2023-01-10T06:37:02;5.80;99.90
51500;DHT22;39101;53.478;6.158;2023-01-10T06:39:27;5.50;99.90
51500;DHT22;39101;53.478;6.158;2023-01-10T06:41:53;5.80;99.90
51500;DHT22;39101;53.478;6.158;2023-01-10T06:44:19;5.80;99.90
51500;DHT22;39101;53.478;6.158;2023-01-10T06:46:44;5.80;99.90
51500;DHT22;39101;53.478;6.158;2023-01-10T06:49:10;5.40;99.90
51500;DHT22;39101;53.478;6.158;2023-01-10T06:51:36;5.70;99.90
51500;DHT22;39101;53.478;6.158;2023-01-10T06:54:01;5.30;99.90
51500;DHT22;39101;53.478;6.158;2023-01-10T06:56:27;5.40;99.90
51500;DHT22;39101;53.478;6.158;2023-01-10T06:58:52;5.60;99.90
51500;DHT22;39101;53.478;6.158;2023-01-10T07:01:19;5.60;99.90
51500;DHT22;39101;53.478;6.158;2023-01-10T07:03:46;5.30;99.90
51500;DHT22;39101;53.478;6.158;2023-01-10T07:06:12;5.70;99.90
51500;DHT22;39101;53.478;6.158;2023-01-10T07:08:40;5.80;99.90
51500;DHT22;39101;53.478;6.158;2023-01-10T07:11:07;5.40;99.90
51500;DHT22;39101;53.478;6.158;2023-01-10T07:13:33;5.90;99.90
51500;DHT22;39101;53.478;6.158;2023-01-10T07:16:06;5.50;99.90
51500;DHT22;39101;53.478;6.158;2023-01-10T07:18:34;5.90;99.90
51500;DHT22;39101;53.478;6.158;2023-01-10T07:21:00;5.50;99.90
51500;DHT22;39101;53.478;6.158;2023-01-10T07:23:26;6.00;99.90
51500;DHT22;39101;53.478;6.158;2023-01-10T07:25:51;6.10;99.90
51500;DHT22;39101;53.478;6.158;2023-01-10T07:28:17;6.10;99.90
51500;DHT22;39101;53.478;6.158;2023-01-10T07:30:43;6.00;99.90
51500;DHT22;39101;53.478;6.158;2023-01-10T07:33:08;6.00;99.90
51500;DHT22;39101;53.478;6.158;2023-01-10T07:35:34;5.80;99.90
51500;DHT22;39101;53.478;6.158;2023-01-10T07:38:00;6.00;99.90
51500;DHT22;39101;53.478;6.158;2023-01-10T07:40:28;6.00;99.90
51500;DHT22;39101;53.478;6.158;2023-01-10T07:43:00;6.00;99.90
51500;DHT22;39101;53.478;6.158;2023-01-10T07:45:28;6.00;99.90
51500;DHT22;39101;53.478;6.158;2023-01-10T07:48:01;5.50;99.90
51500;DHT22;39101;53.478;6.158;2023-01-10T07:50:29;5.90;99.90
51500;DHT22;39101;53.478;6.158;2023-01-10T07:52:55;5.90;99.90
51500;DHT22;39101;53.478;6.158;2023-01-10T07:55:23;5.90;99.90
51500;DHT22;39101;53.478;6.158;2023-01-10T07:57:49;5.80;99.90
51500;DHT22;39101;53.478;6.158;2023-01-10T08:00:16;5.60;99.90
51500;DHT22;39101;53.478;6.158;2023-01-10T08:02:42;5.50;99.90
51500;DHT22;39101;53.478;6.158;2023-01-10T08:05:09;5.50;99.90
51500;DHT22;39101;53.478;6.158;2023-01-10T08:07:35;5.80;99.90
51500;DHT22;39101;53.478;6.158;2023-01-10T08:10:01;6.00;99.90
51500;DHT22;39101;53.478;6.158;2023-01-10T08:12:26;5.80;99.90
51500;DHT22;39101;53.478;6.158;2023-01-10T08:14:52;5.50;99.90
51500;DHT22;39101;53.478;6.158;2023-01-10T08:17:18;6.00;99.90
51500;DHT22;39101;53.478;6.158;2023-01-10T08:19:44;5.70;99.90
51500;DHT22;39101;53.478;6.158;2023-01-10T08:22:11;5.80;99.90
51500;DHT22;39101;53.478;6.158;2023-01-10T08:24:37;6.10;99.90
51500;DHT22;39101;53.478;6.158;2023-01-10T08:27:03;6.10;99.90
51500;DHT22;39101;53.478;6.158;2023-01-10T08:29:29;5.70;99.90
51500;DHT22;39101;53.478;6.158;2023-01-10T08:31:54;6.10;99.90
51500;DHT22;39101;53.478;6.158;2023-01-10T08:34:20;6.00;99.90
51500;DHT22;39101;53.478;6.158;2023-01-10T08:36:50;6.30;99.90
51500;DHT22;39101;53.478;6.158;2023-01-10T08:39:16;5.80;99.90
51500;DHT22;39101;53.478;6.158;2023-01-10T08:41:42;6.20;99.90
51500;DHT22;39101;53.478;6.158;2023-01-10T08:44:07;6.20;99.90
51500;DHT22;39101;53.478;6.158;2023-01-10T08:46:33;6.00;99.90
51500;DHT22;39101;53.478;6.158;2023-01-10T08:48:59;6.20;99.90
51500;DHT22;39101;53.478;6.158;2023-01-10T08:51:24;6.50;99.90
51500;DHT22;39101;53.478;6.158;2023-01-10T08:53:50;6.60;99.90
51500;DHT22;39101;53.478;6.158;2023-01-10T08:56:16;6.70;99.90
51500;DHT22;39101;53.478;6.158;2023-01-10T08:58:41;6.70;99.90
51500;DHT22;39101;53.478;6.158;2023-01-10T09:01:08;6.30;99.90
51500;DHT22;39101;53.478;6.158;2023-01-10T09:03:34;6.70;99.90
51500;DHT22;39101;53.478;6.158;2023-01-10T09:06:00;6.30;99.90
51500;DHT22;39101;53.478;6.158;2023-01-10T09:08:26;6.70;99.90
51500;DHT22;39101;53.478;6.158;2023-01-10T09:10:52;6.70;99.90
51500;DHT22;39101;53.478;6.158;2023-01-10T09:13:18;6.80;99.90
51500;DHT22;39101;53.478;6.158;2023-01-10T09:15:43;6.50;99.90
51500;DHT22;39101;53.478;6.158;2023-01-10T09:18:11;7.00;99.90
51500;DHT22;39101;53.478;6.158;2023-01-10T09:20:38;6.50;99.90
51500;DHT22;39101;53.478;6.158;2023-01-10T09:23:06;6.90;99.90
51500;DHT22;39101;53.478;6.158;2023-01-10T09:25:33;6.80;99.90
51500;DHT22;39101;53.478;6.158;2023-01-10T09:27:59;7.00;99.90
51500;DHT22;39101;53.478;6.158;2023-01-10T09:30:26;7.00;99.90
51500;DHT22;39101;53.478;6.158;2023-01-10T09:32:53;6.50;99.90
51500;DHT22;39101;53.478;6.158;2023-01-10T09:35:19;6.60;99.90
51500;DHT22;39101;53.478;6.158;2023-01-10T09:37:44;6.80;99.90
51500;DHT22;39101;53.478;6.158;2023-01-10T09:40:15;7.10;99.90
51500;DHT22;39101;53.478;6.158;2023-01-10T09:45:45;7.10;99.90
51500;DHT22;39101;53.478;6.158;2023-01-10T09:48:19;7.00;99.90
51500;DHT22;39101;53.478;6.158;2023-01-10T09:51:05;6.90;99.90
51500;DHT22;39101;53.478;6.158;2023-01-10T09:53:36;7.00;99.90
51500;DHT22;39101;53.478;6.158;2023-01-10T09:56:04;7.00;99.90
51500;DHT22;39101;53.478;6.158;2023-01-10T09:58:33;6.70;99.90
51500;DHT22;39101;53.478;6.158;2023-01-10T10:01:06;6.70;99.90
51500;DHT22;39101;53.478;6.158;2023-01-10T10:03:37;7.00;99.90
51500;DHT22;39101;53.478;6.158;2023-01-10T10:06:06;6.70;99.90
51500;DHT22;39101;53.478;6.158;2023-01-10T10:08:35;7.10;99.90
51500;DHT22;39101;53.478;6.158;2023-01-10T10:11:09;6.70;99.90
51500;DHT22;39101;53.478;6.158;2023-01-10T10:27:28;7.10;99.90
51500;DHT22;39101;53.478;6.158;2023-01-10T10:35:43;6.60;99.90
51500;DHT22;39101;53.478;6.158;2023-01-10T10:38:16;7.00;99.90
51500;DHT22;39101;53.478;6.158;2023-01-10T10:40:43;7.10;99.90
51500;DHT22;39101;53.478;6.158;2023-01-10T10:43:19;7.00;99.90
51500;DHT22;39101;53.478;6.158;2023-01-10T10:48:41;6.80;99.90
51500;DHT22;39101;53.478;6.158;2023-01-10T10:51:38;7.10;99.90
51500;DHT22;39101;53.478;6.158;2023-01-10T10:54:09;7.20;99.90
51500;DHT22;39101;53.478;6.158;2023-01-10T10:56:36;7.20;99.90
51500;DHT22;39101;53.478;6.158;2023-01-10T10:59:03;6.80;99.90
51500;DHT22;39101;53.478;6.158;2023-01-10T11:01:29;6.90;99.90
51500;DHT22;39101;53.478;6.158;2023-01-10T11:03:58;6.80;99.90
51500;DHT22;39101;53.478;6.158;2023-01-10T11:06:27;6.90;99.90
51500;DHT22;39101;53.478;6.158;2023-01-10T11:09:00;7.30;99.90
51500;DHT22;39101;53.478;6.158;2023-01-10T11:11:46;6.90;99.90
51500;DHT22;39101;53.478;6.158;2023-01-10T11:14:15;7.10;99.90
51500;DHT22;39101;53.478;6.158;2023-01-10T11:19:57;6.90;99.90
51500;DHT22;39101;53.478;6.158;2023-01-10T11:22:24;7.40;99.90
51500;DHT22;39101;53.478;6.158;2023-01-10T11:24:53;7.40;99.90
51500;DHT22;39101;53.478;6.158;2023-01-10T11:27:31;7.40;99.90
51500;DHT22;39101;53.478;6.158;2023-01-10T11:30:00;7.00;99.90
51500;DHT22;39101;53.478;6.158;2023-01-10T11:32:36;7.30;99.90
51500;DHT22;39101;53.478;6.158;2023-01-10T11:35:19;7.20;99.90
51500;DHT22;39101;53.478;6.158;2023-01-10T11:38:39;7.40;99.90
51500;DHT22;39101;53.478;6.158;2023-01-10T11:41:13;7.10;99.90
51500;DHT22;39101;53.478;6.158;2023-01-10T11:43:47;7.60;99.90
51500;DHT22;39101;53.478;6.158;2023-01-10T11:46:21;7.30;99.90
51500;DHT22;39101;53.478;6.158;2023-01-10T11:49:00;7.10;99.90
51500;DHT22;39101;53.478;6.158;2023-01-10T11:51:31;7.60;99.90
51500;DHT22;39101;53.478;6.158;2023-01-10T11:54:05;7.50;99.90
51500;DHT22;39101;53.478;6.158;2023-01-10T11:56:34;7.00;99.90
51500;DHT22;39101;53.478;6.158;2023-01-10T11:59:08;7.60;99.90
51500;DHT22;39101;53.478;6.158;2023-01-10T12:01:47;7.00;99.90
51500;DHT22;39101;53.478;6.158;2023-01-10T12:04:19;7.60;99.90
51500;DHT22;39101;53.478;6.158;2023-01-10T12:06:54;7.50;99.90
51500;DHT22;39101;53.478;6.158;2023-01-10T12:09:37;7.60;99.90
51500;DHT22;39101;53.478;6.158;2023-01-10T12:12:27;7.10;99.90
51500;DHT22;39101;53.478;6.158;2023-01-10T12:14:58;7.50;99.90
51500;DHT22;39101;53.478;6.158;2023-01-10T12:17:28;7.30;99.90
51500;DHT22;39101;53.478;6.158;2023-01-10T12:19:56;7.00;99.90
51500;DHT22;39101;53.478;6.158;2023-01-10T12:22:46;7.00;99.90
51500;DHT22;39101;53.478;6.158;2023-01-10T12:25:20;7.00;99.90
51500;DHT22;39101;53.478;6.158;2023-01-10T12:27:47;7.20;99.90
51500;DHT22;39101;53.478;6.158;2023-01-10T12:32:53;6.90;99.90
51500;DHT22;39101;53.478;6.158;2023-01-10T12:38:03;7.40;99.90
51500;DHT22;39101;53.478;6.158;2023-01-10T12:40:42;7.40;99.90
51500;DHT22;39101;53.478;6.158;2023-01-10T12:43:18;7.30;99.90
51500;DHT22;39101;53.478;6.158;2023-01-10T12:46:18;6.80;99.90
51500;DHT22;39101;53.478;6.158;2023-01-10T12:51:26;6.80;99.90
51500;DHT22;39101;53.478;6.158;2023-01-10T12:53:59;7.40;99.90
51500;DHT22;39101;53.478;6.158;2023-01-10T12:56:28;7.20;99.90
51500;DHT22;39101;53.478;6.158;2023-01-10T12:58:58;7.30;99.90
51500;DHT22;39101;53.478;6.158;2023-01-10T13:01:31;7.30;99.90
51500;DHT22;39101;53.478;6.158;2023-01-10T13:04:20;7.10;99.90
51500;DHT22;39101;53.478;6.158;2023-01-10T13:06:47;7.00;99.90
51500;DHT22;39101;53.478;6.158;2023-01-10T13:09:20;6.80;99.90
51500;DHT22;39101;53.478;6.158;2023-01-10T13:12:15;6.70;99.90
51500;DHT22;39101;53.478;6.158;2023-01-10T13:22:42;6.60;99.90
51500;DHT22;39101;53.478;6.158;2023-01-10T13:25:23;6.90;99.90
51500;DHT22;39101;53.478;6.158;2023-01-10T13:28:25;6.70;99.90
51500;DHT22;39101;53.478;6.158;2023-01-10T13:30:59;6.90;99.90
51500;DHT22;39101;53.478;6.158;2023-01-10T13:33:39;7.00;99.90
51500;DHT22;39101;53.478;6.158;2023-01-10T13:36:22;6.90;99.90
51500;DHT22;39101;53.478;6.158;2023-01-10T13:38:58;7.00;99.90
51500;DHT22;39101;53.478;6.158;2023-01-10T14:01:00;6.30;99.90
51500;DHT22;39101;53.478;6.158;2023-01-10T14:08:59;6.30;99.90
51500;DHT22;39101;53.478;6.158;2023-01-10T14:14:24;6.90;99.90
51500;DHT22;39101;53.478;6.158;2023-01-10T14:16:56;6.30;99.90
51500;DHT22;39101;53.478;6.158;2023-01-10T14:19:31;6.20;99.90
51500;DHT22;39101;53.478;6.158;2023-01-10T14:22:00;6.20;99.90
51500;DHT22;39101;53.478;6.158;2023-01-10T14:24:34;6.30;99.90
51500;DHT22;39101;53.478;6.158;2023-01-10T14:27:02;6.20;99.90
51500;DHT22;39101;53.478;6.158;2023-01-10T14:29:31;6.20;99.90
51500;DHT22;39101;53.478;6.158;2023-01-10T14:31:59;6.40;99.90
51500;DHT22;39101;53.478;6.158;2023-01-10T14:37:15;6.10;99.90
51500;DHT22;39101;53.478;6.158;2023-01-10T14:39:46;6.30;99.90
51500;DHT22;39101;53.478;6.158;2023-01-10T14:42:14;6.60;99.90
51500;DHT22;39101;53.478;6.158;2023-01-10T14:44:48;6.60;99.90
51500;DHT22;39101;53.478;6.158;2023-01-10T14:47:28;6.40;99.90
51500;DHT22;39101;53.478;6.158;2023-01-10T14:49:54;6.50;99.90
51500;DHT22;39101;53.478;6.158;2023-01-10T14:52:23;6.10;99.90
51500;DHT22;39101;53.478;6.158;2023-01-10T14:55:12;6.60;99.90
51500;DHT22;39101;53.478;6.158;2023-01-10T14:57:57;6.10;99.90
51500;DHT22;39101;53.478;6.158;2023-01-10T15:02:50;6.20;99.90
51500;DHT22;39101;53.478;6.158;2023-01-10T15:05:22;6.30;99.90
51500;DHT22;39101;53.478;6.158;2023-01-10T15:07:50;6.70;99.90
51500;DHT22;39101;53.478;6.158;2023-01-10T15:10:31;6.10;99.90
51500;DHT22;39101;53.478;6.158;2023-01-10T15:13:01;6.20;99.90
51500;DHT22;39101;53.478;6.158;2023-01-10T15:15:33;6.20;99.90
51500;DHT22;39101;53.478;6.158;2023-01-10T15:18:01;6.20;99.90
51500;DHT22;39101;53.478;6.158;2023-01-10T15:20:28;6.20;99.90
51500;DHT22;39101;53.478;6.158;2023-01-10T15:22:57;6.60;99.90
51500;DHT22;39101;53.478;6.158;2023-01-10T15:27:53;6.30;99.90
51500;DHT22;39101;53.478;6.158;2023-01-10T15:30:21;6.20;99.90
51500;DHT22;39101;53.478;6.158;2023-01-10T15:32:57;6.70;99.90
51500;DHT22;39101;53.478;6.158;2023-01-10T15:35:27;6.70;99.90
51500;DHT22;39101;53.478;6.158;2023-01-10T15:37:57;6.30;99.90
51500;DHT22;39101;53.478;6.158;2023-01-10T15:40:29;6.70;99.90
51500;DHT22;39101;53.478;6.158;2023-01-10T15:43:20;6.80;99.90
51500;DHT22;39101;53.478;6.158;2023-01-10T15:45:48;6.30;99.90
51500;DHT22;39101;53.478;6.158;2023-01-10T15:51:01;6.70;99.90
51500;DHT22;39101;53.478;6.158;2023-01-10T15:54:02;6.20;99.90
51500;DHT22;39101;53.478;6.158;2023-01-10T15:56:40;6.30;99.90
51500;DHT22;39101;53.478;6.158;2023-01-10T16:04:40;6.10;99.90
51500;DHT22;39101;53.478;6.158;2023-01-10T16:10:04;6.10;99.90
51500;DHT22;39101;53.478;6.158;2023-01-10T16:12:38;6.10;99.90
51500;DHT22;39101;53.478;6.158;2023-01-10T16:15:25;6.60;99.90
51500;DHT22;39101;53.478;6.158;2023-01-10T16:17:52;6.10;99.90
51500;DHT22;39101;53.478;6.158;2023-01-10T16:20:20;6.20;99.90
51500;DHT22;39101;53.478;6.158;2023-01-10T16:22:47;6.40;99.90
51500;DHT22;39101;53.478;6.158;2023-01-10T16:25:19;6.30;99.90
51500;DHT22;39101;53.478;6.158;2023-01-10T16:27:48;6.00;99.90
51500;DHT22;39101;53.478;6.158;2023-01-10T16:30:40;6.50;99.90
51500;DHT22;39101;53.478;6.158;2023-01-10T16:33:22;6.30;99.90
51500;DHT22;39101;53.478;6.158;2023-01-10T16:35:51;6.20;99.90
51500;DHT22;39101;53.478;6.158;2023-01-10T16:38:18;5.90;99.90
51500;DHT22;39101;53.478;6.158;2023-01-10T16:40:48;6.10;99.90
51500;DHT22;39101;53.478;6.158;2023-01-10T16:43:15;5.90;99.90
51500;DHT22;39101;53.478;6.158;2023-01-10T16:45:48;6.30;99.90
51500;DHT22;39101;53.478;6.158;2023-01-10T16:48:14;5.80;99.90
51500;DHT22;39101;53.478;6.158;2023-01-10T16:50:41;6.30;99.90
51500;DHT22;39101;53.478;6.158;2023-01-10T16:53:10;5.90;99.90
51500;DHT22;39101;53.478;6.158;2023-01-10T16:58:08;5.60;99.90
51500;DHT22;39101;53.478;6.158;2023-01-10T17:00:35;5.80;99.90
51500;DHT22;39101;53.478;6.158;2023-01-10T17:03:04;5.70;99.90
51500;DHT22;39101;53.478;6.158;2023-01-10T17:05:30;6.10;99.90
51500;DHT22;39101;53.478;6.158;2023-01-10T17:07:57;5.80;99.90
51500;DHT22;39101;53.478;6.158;2023-01-10T17:10:23;5.70;99.90
51500;DHT22;39101;53.478;6.158;2023-01-10T17:12:49;5.60;99.90
51500;DHT22;39101;53.478;6.158;2023-01-10T17:15:15;5.60;99.90
51500;DHT22;39101;53.478;6.158;2023-01-10T17:17:41;5.60;99.90
51500;DHT22;39101;53.478;6.158;2023-01-10T17:20:14;5.90;99.90
51500;DHT22;39101;53.478;6.158;2023-01-10T17:22:40;6.10;99.90
51500;DHT22;39101;53.478;6.158;2023-01-10T17:25:10;5.60;99.90
51500;DHT22;39101;53.478;6.158;2023-01-10T17:27:37;6.10;99.90
51500;DHT22;39101;53.478;6.158;2023-01-10T17:30:03;6.40;99.90
51500;DHT22;39101;53.478;6.158;2023-01-10T17:32:29;5.60;99.90
51500;DHT22;39101;53.478;6.158;2023-01-10T17:34:54;5.90;99.90
51500;DHT22;39101;53.478;6.158;2023-01-10T17:37:20;6.00;99.90
51500;DHT22;39101;53.478;6.158;2023-01-10T17:39:46;6.10;99.90
51500;DHT22;39101;53.478;6.158;2023-01-10T17:42:11;6.20;99.90
51500;DHT22;39101;53.478;6.158;2023-01-10T17:44:37;5.70;99.90
51500;DHT22;39101;53.478;6.158;2023-01-10T17:47:03;6.10;99.90
51500;DHT22;39101;53.478;6.158;2023-01-10T17:49:28;5.90;99.90
51500;DHT22;39101;53.478;6.158;2023-01-10T17:51:54;5.70;99.90
51500;DHT22;39101;53.478;6.158;2023-01-10T17:54:24;5.70;99.90
51500;DHT22;39101;53.478;6.158;2023-01-10T17:56:49;6.20;99.90
51500;DHT22;39101;53.478;6.158;2023-01-10T17:59:15;5.90;99.90
51500;DHT22;39101;53.478;6.158;2023-01-10T18:01:41;5.80;99.90
51500;DHT22;39101;53.478;6.158;2023-01-10T18:04:06;6.30;99.90
51500;DHT22;39101;53.478;6.158;2023-01-10T18:06:33;6.50;99.90